createdAt,value
2019-04-28T00:01:53.721Z,6.30
2019-04-28T00:04:27.095Z,6.29
2019-04-28T00:07:01.872Z,6.23
2019-04-28T00:09:35.461Z,6.24
2019-04-28T00:12:09.146Z,6.20
2019-04-28T00:14:42.208Z,6.20
2019-04-28T00:17:15.727Z,6.19
2019-04-28T00:19:51.360Z,6.18
2019-04-28T00:22:37.286Z,6.14
2019-04-28T00:25:36.070Z,6.16
2019-04-28T00:28:09.463Z,6.07
2019-04-28T00:30:42.963Z,6.08
2019-04-28T00:33:16.399Z,6.07
2019-04-28T00:35:49.233Z,6.06
2019-04-28T00:38:23.473Z,6.10
2019-04-28T00:40:59.573Z,6.04
2019-04-28T00:43:33.414Z,6.03
2019-04-28T00:46:10.802Z,5.96
2019-04-28T00:48:44.742Z,5.95
2019-04-28T00:51:17.896Z,5.93
2019-04-28T00:53:51.199Z,5.87
2019-04-28T00:56:24.213Z,5.88
2019-04-28T00:58:58.322Z,5.84
2019-04-28T01:01:38.056Z,5.86
2019-04-28T01:04:11.871Z,5.82
2019-04-28T01:06:45.813Z,5.74
2019-04-28T01:09:22.053Z,5.68
2019-04-28T01:11:55.449Z,5.65
2019-04-28T01:14:28.422Z,5.64
2019-04-28T01:17:09.798Z,5.64
2019-04-28T01:19:46.359Z,5.64
2019-04-28T01:22:20.131Z,5.60
2019-04-28T01:24:53.807Z,5.66
2019-04-28T01:27:50.527Z,5.62
2019-04-28T01:30:45.864Z,5.61
2019-04-28T01:33:41.699Z,5.62
2019-04-28T01:36:14.823Z,5.58
2019-04-28T01:38:49.941Z,5.67
2019-04-28T01:41:23.207Z,5.72
2019-04-28T01:43:56.180Z,5.72
2019-04-28T01:46:32.254Z,5.70
2019-04-28T01:49:05.651Z,5.74
2019-04-28T01:51:38.937Z,5.81
2019-04-28T01:54:11.728Z,5.80
2019-04-28T01:56:45.078Z,5.77
2019-04-28T01:59:18.027Z,5.80
2019-04-28T02:01:50.999Z,5.81
2019-04-28T02:04:24.156Z,5.88
2019-04-28T02:06:59.812Z,5.94
2019-04-28T02:09:33.545Z,5.96
2019-04-28T02:12:06.518Z,6.03
2019-04-28T02:14:40.529Z,6.06
2019-04-28T02:17:14.528Z,6.08
2019-04-28T02:19:48.395Z,6.07
2019-04-28T02:22:35.484Z,6.08
2019-04-28T02:25:09.941Z,6.11
2019-04-28T02:27:43.491Z,6.13
2019-04-28T02:30:17.489Z,6.19
2019-04-28T02:32:51.911Z,6.23
2019-04-28T02:35:25.946Z,6.26
2019-04-28T02:38:00.168Z,6.26
2019-04-28T02:40:33.771Z,6.34
2019-04-28T02:43:06.850Z,6.31
2019-04-28T02:45:41.359Z,6.34
2019-04-28T02:48:21.204Z,6.33
2019-04-28T02:51:02.832Z,6.31
2019-04-28T02:53:40.893Z,6.38
2019-04-28T02:56:14.647Z,6.39
2019-04-28T02:58:47.656Z,6.40
2019-04-28T03:01:26.105Z,6.32
2019-04-28T03:03:55.742Z,6.26
2019-04-28T03:06:30.661Z,6.28
2019-04-28T03:09:04.464Z,6.24
2019-04-28T03:11:38.285Z,6.25
2019-04-28T03:14:11.580Z,6.32
2019-04-28T03:16:44.970Z,6.33
2019-04-28T03:19:17.845Z,6.26
2019-04-28T03:21:51.141Z,6.24
2019-04-28T03:24:24.297Z,6.27
2019-04-28T03:27:16.079Z,6.27
2019-04-28T03:29:57.052Z,6.23
2019-04-28T03:32:45.251Z,6.19
2019-04-28T03:35:13.041Z,6.23
2019-04-28T03:37:43.606Z,6.22
2019-04-28T03:40:16.988Z,6.21
2019-04-28T03:42:51.349Z,6.19
2019-04-28T03:45:30.671Z,6.18
2019-04-28T03:48:04.061Z,6.22
2019-04-28T03:50:37.415Z,6.18
2019-04-28T03:53:11.866Z,6.19
2019-04-28T03:55:47.491Z,6.22
2019-04-28T03:58:23.793Z,6.20
2019-04-28T04:00:56.848Z,6.20
2019-04-28T04:03:30.560Z,6.20
2019-04-28T04:06:04.021Z,6.15
2019-04-28T04:08:40.549Z,6.12
2019-04-28T04:11:38.193Z,6.12
2019-04-28T04:14:36.817Z,6.13
2019-04-28T04:17:21.262Z,6.09
2019-04-28T04:19:54.714Z,6.10
2019-04-28T04:22:27.837Z,6.12
2019-04-28T04:25:01.346Z,6.17
2019-04-28T04:27:35.364Z,6.21
2019-04-28T04:30:10.852Z,6.26
2019-04-28T04:32:44.459Z,6.30
2019-04-28T04:35:17.500Z,6.35
2019-04-28T04:37:50.502Z,6.34
2019-04-28T04:40:23.774Z,6.38
2019-04-28T04:42:57.587Z,6.43
2019-04-28T04:45:31.104Z,6.45
2019-04-28T04:48:05.375Z,6.48
2019-04-28T04:50:41.185Z,6.53
2019-04-28T04:53:14.765Z,6.57
2019-04-28T04:55:50.719Z,6.60
2019-04-28T04:58:23.594Z,6.66
2019-04-28T05:01:16.123Z,6.67
2019-04-28T05:03:51.276Z,6.74
2019-04-28T05:06:33.404Z,6.72
2019-04-28T05:09:09.988Z,6.73
2019-04-28T05:11:43.853Z,6.78
2019-04-28T05:14:17.330Z,6.83
2019-04-28T05:16:51.082Z,6.86
2019-04-28T05:19:26.719Z,6.84
2019-04-28T05:22:00.125Z,6.87
2019-04-28T05:24:46.349Z,6.94
2019-04-28T05:27:22.161Z,6.93
2019-04-28T05:29:56.864Z,7.00
2019-04-28T05:32:42.483Z,6.97
2019-04-28T05:35:10.244Z,7.03
2019-04-28T05:37:43.909Z,7.15
2019-04-28T05:40:17.418Z,7.34
2019-04-28T05:43:00.863Z,7.42
2019-04-28T05:45:34.863Z,7.44
2019-04-28T05:48:09.533Z,7.65
2019-04-28T05:50:54.252Z,7.75
2019-04-28T05:53:43.491Z,7.84
2019-04-28T05:56:30.778Z,7.77
2019-04-28T05:59:10.592Z,7.61
2019-04-28T06:02:00.631Z,7.78
2019-04-28T06:04:34.416Z,8.04
2019-04-28T06:07:36.156Z,7.96
2019-04-28T06:10:10.502Z,8.11
2019-04-28T06:12:43.352Z,7.90
2019-04-28T06:15:16.803Z,8.03
2019-04-28T06:17:50.357Z,8.09
2019-04-28T06:20:23.683Z,8.11
2019-04-28T06:22:57.047Z,8.09
2019-04-28T06:25:31.392Z,7.93
2019-04-28T06:28:05.057Z,7.93
2019-04-28T06:30:38.365Z,7.99
2019-04-28T06:33:11.479Z,8.32
2019-04-28T06:35:44.858Z,8.59
2019-04-28T06:38:18.255Z,8.67
2019-04-28T06:40:51.159Z,8.51
2019-04-28T06:43:24.134Z,8.62
2019-04-28T06:45:56.594Z,8.58
2019-04-28T06:48:30.102Z,8.70
2019-04-28T06:51:03.310Z,8.76
2019-04-28T06:53:37.146Z,8.86
2019-04-28T06:56:10.739Z,8.97
2019-04-28T06:58:43.836Z,8.75
2019-04-28T07:01:17.495Z,8.69
2019-04-28T07:03:51.107Z,8.87
2019-04-28T07:06:24.512Z,8.66
2019-04-28T07:08:57.897Z,8.46
2019-04-28T07:11:30.941Z,8.41
2019-04-28T07:14:06.041Z,8.81
2019-04-28T07:16:39.629Z,9.10
2019-04-28T07:19:13.012Z,9.15
2019-04-28T07:21:54.924Z,8.92
2019-04-28T07:24:27.889Z,9.34
2019-04-28T07:27:00.904Z,9.67
2019-04-28T07:29:34.410Z,9.13
2019-04-28T07:32:08.799Z,9.19
2019-04-28T07:34:42.456Z,9.70
2019-04-28T07:37:15.490Z,9.41
2019-04-28T07:39:48.840Z,9.77
2019-04-28T07:42:22.403Z,9.47
2019-04-28T07:44:56.020Z,9.79
2019-04-28T07:47:29.625Z,10.06
2019-04-28T07:50:02.958Z,10.80
2019-04-28T07:52:43.560Z,11.09
2019-04-28T07:55:16.688Z,10.71
2019-04-28T07:57:50.150Z,10.35
2019-04-28T08:00:27.970Z,10.61
2019-04-28T08:03:01.879Z,10.58
2019-04-28T08:05:34.967Z,10.46
2019-04-28T08:08:08.456Z,10.44
2019-04-28T08:10:41.794Z,10.57
2019-04-28T08:13:14.937Z,10.46
2019-04-28T08:15:48.541Z,10.82
2019-04-28T08:18:22.370Z,11.01
2019-04-28T08:20:55.689Z,11.12
2019-04-28T08:23:29.469Z,11.05
2019-04-28T08:26:02.569Z,11.43
2019-04-28T08:28:35.249Z,11.39
2019-04-28T08:31:10.956Z,11.49
2019-04-28T08:34:02.191Z,11.63
2019-04-28T08:36:29.226Z,11.92
2019-04-28T08:39:04.361Z,11.76
2019-04-28T08:41:39.315Z,11.72
2019-04-28T08:44:13.022Z,11.52
2019-04-28T08:46:46.112Z,11.70
2019-04-28T08:49:19.817Z,12.38
2019-04-28T08:51:52.904Z,11.65
2019-04-28T08:54:26.388Z,11.78
2019-04-28T08:56:59.154Z,11.99
2019-04-28T08:59:32.589Z,12.67
2019-04-28T09:02:07.109Z,12.26
2019-04-28T09:04:40.693Z,11.82
2019-04-28T09:07:13.799Z,11.71
2019-04-28T09:09:48.332Z,12.23
2019-04-28T09:12:21.748Z,12.80
2019-04-28T09:14:55.024Z,12.01
2019-04-28T09:17:28.096Z,11.15
2019-04-28T09:20:01.167Z,11.38
2019-04-28T09:22:33.881Z,10.61
2019-04-28T09:25:07.730Z,10.55
2019-04-28T09:27:41.505Z,10.80
2019-04-28T09:30:15.286Z,10.90
2019-04-28T09:32:48.724Z,10.83
2019-04-28T09:35:22.389Z,11.25
2019-04-28T09:37:55.521Z,11.32
2019-04-28T09:40:30.568Z,11.64
2019-04-28T09:43:31.782Z,14.05
2019-04-28T09:46:09.592Z,13.56
2019-04-28T09:48:42.825Z,14.06
2019-04-28T09:51:15.828Z,13.28
2019-04-28T09:53:48.865Z,14.92
2019-04-28T09:56:21.826Z,15.59
2019-04-28T09:58:55.239Z,14.65
2019-04-28T10:01:28.339Z,13.92
2019-04-28T10:04:02.323Z,13.46
2019-04-28T10:06:35.784Z,13.06
2019-04-28T10:09:09.320Z,12.56
2019-04-28T10:11:51.348Z,11.46
2019-04-28T10:14:25.464Z,10.61
2019-04-28T10:16:58.432Z,10.79
2019-04-28T10:19:33.555Z,12.73
2019-04-28T10:22:06.534Z,14.20
2019-04-28T10:24:39.359Z,13.93
2019-04-28T10:27:12.711Z,13.52
2019-04-28T10:29:46.758Z,12.61
2019-04-28T10:32:20.333Z,12.29
2019-04-28T10:34:54.957Z,12.48
2019-04-28T10:37:28.432Z,13.30
2019-04-28T10:40:06.636Z,14.13
2019-04-28T10:42:39.456Z,15.17
2019-04-28T10:45:15.477Z,14.65
2019-04-28T10:47:51.011Z,13.36
2019-04-28T10:50:27.398Z,11.87
2019-04-28T10:53:00.427Z,11.26
2019-04-28T10:55:34.849Z,8.90
2019-04-28T10:58:09.580Z,7.97
2019-04-28T11:00:43.411Z,7.51
2019-04-28T11:03:16.861Z,7.14
2019-04-28T11:05:50.170Z,7.10
2019-04-28T11:08:31.800Z,6.85
2019-04-28T11:11:11.392Z,6.86
2019-04-28T11:13:45.421Z,6.89
2019-04-28T11:16:21.726Z,6.87
2019-04-28T11:18:55.646Z,6.78
2019-04-28T11:21:28.791Z,6.94
2019-04-28T11:24:02.392Z,7.12
2019-04-28T11:26:36.355Z,7.37
2019-04-28T11:29:10.114Z,7.69
2019-04-28T11:31:42.406Z,8.07
2019-04-28T11:34:21.856Z,8.52
2019-04-28T11:36:55.648Z,8.87
2019-04-28T11:39:31.665Z,9.94
2019-04-28T11:42:05.064Z,9.73
2019-04-28T11:44:38.163Z,10.42
2019-04-28T11:47:14.620Z,10.45
2019-04-28T11:49:48.410Z,11.51
2019-04-28T11:52:21.129Z,11.30
2019-04-28T18:37:46.608Z,8.00
2019-04-28T18:40:42.849Z,7.83
2019-04-28T18:43:47.545Z,7.66
2019-04-28T18:46:27.458Z,7.48
2019-04-28T18:49:00.715Z,7.44
2019-04-28T18:56:06.708Z,7.48
2019-04-28T18:58:48.890Z,7.31
2019-04-28T19:01:55.206Z,7.32
2019-04-28T19:04:29.757Z,7.24
2019-04-28T21:13:08.406Z,6.46
2019-04-28T21:15:43.129Z,6.34
2019-04-28T21:18:16.280Z,6.08
2019-04-28T21:20:49.214Z,5.96
2019-04-28T21:23:23.200Z,5.84
2019-04-28T21:25:56.396Z,5.72
2019-04-28T21:28:30.288Z,5.55
2019-04-28T21:31:03.514Z,5.46
2019-04-28T21:33:37.014Z,5.42
2019-04-28T21:36:11.281Z,5.42
2019-04-28T21:38:47.687Z,5.33
2019-04-28T21:41:21.681Z,5.16
2019-04-28T21:44:17.237Z,5.17
2019-04-28T21:46:55.230Z,5.10
2019-04-28T21:49:30.102Z,5.08
2019-04-28T21:52:03.220Z,5.02
2019-04-28T21:54:36.156Z,4.87
2019-04-28T21:57:08.976Z,4.79
2019-04-28T21:59:42.936Z,4.70
2019-04-28T22:02:15.682Z,4.65
2019-04-28T22:04:48.128Z,4.53
2019-04-28T22:07:22.796Z,4.69
2019-04-28T22:09:56.326Z,4.69
2019-04-28T22:12:29.611Z,4.67
2019-04-28T22:15:03.131Z,4.74
2019-04-28T22:17:36.620Z,4.61
2019-04-28T22:20:10.464Z,4.51
2019-04-28T22:22:43.609Z,4.45
2019-04-28T22:25:19.584Z,4.31
2019-04-28T22:27:51.882Z,4.31
2019-04-28T22:30:25.012Z,4.31
2019-04-28T22:32:57.729Z,4.33
2019-04-28T22:35:30.838Z,4.31
2019-04-28T22:38:03.472Z,4.23
2019-04-28T22:40:36.078Z,4.32
2019-04-28T22:43:09.494Z,4.35
2019-04-28T22:45:43.551Z,4.34
2019-04-28T22:48:20.866Z,4.33
2019-04-28T22:50:53.830Z,4.26
2019-04-28T22:53:32.899Z,4.25
2019-04-28T22:56:25.638Z,4.18
2019-04-28T22:59:05.463Z,4.23
2019-04-28T23:01:41.623Z,4.30
2019-04-28T23:04:32.933Z,4.35
2019-04-28T23:07:06.529Z,4.44
2019-04-28T23:09:40.050Z,4.50
2019-04-28T23:12:13.202Z,4.53
2019-04-28T23:14:47.016Z,4.49
2019-04-28T23:17:21.275Z,4.51
2019-04-28T23:19:54.990Z,4.49
2019-04-28T23:22:46.649Z,4.53
2019-04-28T23:25:12.334Z,4.60
2019-04-28T23:27:45.311Z,4.58
2019-04-28T23:30:38.283Z,4.56
2019-04-28T23:33:11.136Z,4.59
2019-04-28T23:35:44.641Z,4.62
2019-04-28T23:38:17.699Z,4.64
2019-04-28T23:41:02.784Z,4.65
2019-04-28T23:43:36.084Z,4.49
2019-04-28T23:46:09.082Z,4.20
2019-04-28T23:48:42.457Z,4.13
2019-04-28T23:51:24.063Z,4.18
2019-04-28T23:54:00.141Z,4.32
2019-04-28T23:56:33.450Z,4.34
2019-04-28T23:59:05.755Z,4.47
